Chicago, Illinois
Traffic Map
Current Weather Conditions
Chicago, Illinois
Broken Clouds
Broken Clouds
68°
Feels Like: 68°
Wind Chill: 68° Ceiling: 9500
Heat Index: 68° Visibility: 10mi
Dew Point: 38° Wind: 10mph
Humidity: 33% Direction: 260° (W)
Pressure: 29.85in Gusts: 0mph
Raw Report DataKMDW 031953Z 26009KT 10SM FEW070 BKN095 20/03 A2985 RMK AO2 SLP107 T02000033
Traffic Incident Summary
Active as of:
Severity:
Category:
InformationThere was an issue retrieving the traffic information for this location. Please try a different location or try again shortly.
Advertisements
Track Severe Weather on mobile